Auburn, WY

9:17 AM MDT on August 26, 2016 (GMT -0600)
Swift Creek | | Change Station

Elev 6280 ft 42.73 °N, 110.93 °W | Updated 8 seconds ago

Clear
Clear
47.3 °F
Feels Like 47 °F
N
0.0
Wind Variable Wind from SE
Gusts 0.0 mph

Today
High -- | Low -- °F
--% Chance of Precip.
Yesterday
High -- | Low -- °F
Precip. -- in
Pressure 30.17 in
Visibility 10.0 miles
Clouds Clear
Windchill 47 °F
Dew Point 32 °F
Humidity 55%
Rainfall 0.00 in
Snow Depth Not available.
6:42 AM 8:07 PM
Waning Crescent, 34% visible
METAR KAFO 261455Z AUTO 00000KT 10SM CLR 06/00 A3017 RMK AO2 TSNO
Pressure 30.17 in
Visibility 10.0 miles
Clouds Clear
Windchill 47 °F
Dew Point 32 °F
Humidity 55%
Rainfall 0.00 in
Snow Depth Not available.
6:42 AM 8:07 PM
Waning Crescent, 34% visible
METAR KAFO 261455Z AUTO 00000KT 10SM CLR 06/00 A3017 RMK AO2 TSNO

10-Day Weather Forecast

Almanac

Astronomy

Aug. 26, 2016 Rise Set
Actual Time
Civil Twilight
Nautical Twilight
Astronomical Twilight
Moon
Length of Visible Light
Length of Day
Tomorrow will be .
, % of the Moon is Illuminated

Today's Extremes

State Highs State Lows

Community

WunderPhotos

Upload Photos

1,935,098 photos uploaded!

WunderBlog® & News

Nearby

Air Quality

  Air Quality AQ Index Pollutant
Not available.

Snow Depth

Station Depth Elevation

Earthquake Activity

City Distance Mag. Time & Date
Minimum magnitude displayed is 2.5.

Coastal Water Temperatures

Place Temperature

Stations

Nearby Weather Stations

Station Location Temp. Windchill Dew Point Humidity Wind Precip. Elev Updated Type
                   

Watches & Warnings

There are currently no watches in effect.